Time;durP1;ratioP1;P1;durP2;ratioP2;P2;SDS_P1;SDS_P2;PMS_P1;PMS_P2;Temp;Humidity;BMP_temperature;BMP_pressure;BME280_temperature;BME280_humidity;BME280_pressure;Samples;Min_cycle;Max_cycle;Signal;HPM_P1;HPM_P2
2022/07/23 00:00:52;;;;;;;25.50;13.60;;;;;;;22.92;47.85;98939.35;106073;1275;108365;-62
2022/07/23 00:03:21;;;;;;;23.40;12.90;;;;;;;22.90;47.97;98937.45;106002;1274;97940;-64
2022/07/23 00:05:53;;;;;;;23.00;13.50;;;;;;;22.86;47.93;98938.66;106016;1274;97995;-64
2022/07/23 00:08:22;;;;;;;26.60;12.80;;;;;;;22.82;48.21;98938.88;106119;1274;112043;-65
2022/07/23 00:10:50;;;;;;;24.00;12.60;;;;;;;22.77;48.08;98937.42;106106;1275;97873;-65
2022/07/23 00:13:19;;;;;;;26.70;11.30;;;;;;;22.75;48.57;98939.77;106100;1274;107764;-65
2022/07/23 00:15:48;;;;;;;23.30;11.20;;;;;;;22.73;48.36;98942.05;106028;1274;95298;-64
2022/07/23 00:18:19;;;;;;;25.40;11.50;;;;;;;22.69;48.65;98946.89;105987;1274;97858;-64
2022/07/23 00:20:47;;;;;;;26.50;12.20;;;;;;;22.65;48.53;98945.22;106073;1274;111388;-64
2022/07/23 00:23:15;;;;;;;22.40;12.10;;;;;;;22.58;48.57;98942.73;106028;1274;97962;-64
2022/07/23 00:25:46;;;;;;;24.10;12.00;;;;;;;22.53;48.60;98938.73;106041;1274;109033;-64
2022/07/23 00:28:15;;;;;;;30.70;11.80;;;;;;;22.51;48.81;98937.04;105977;1276;98581;-63
2022/07/23 00:30:45;;;;;;;24.40;12.20;;;;;;;22.50;48.91;98940.11;106088;1274;97944;-65
2022/07/23 00:33:14;;;;;;;24.40;12.60;;;;;;;22.47;48.87;98941.86;106099;1274;111754;-64
2022/07/23 00:35:44;;;;;;;22.20;11.90;;;;;;;22.45;48.90;98945.61;106119;1274;97876;-65
2022/07/23 00:38:15;;;;;;;22.70;11.90;;;;;;;22.41;49.32;98946.73;106089;1274;108486;-65
2022/07/23 00:40:42;;;;;;;25.10;13.10;;;;;;;22.37;49.22;98948.15;106000;1274;95359;-66
2022/07/23 00:43:11;;;;;;;29.90;12.80;;;;;;;22.32;49.33;98947.14;105986;1274;97502;-64
2022/07/23 00:45:40;;;;;;;22.60;12.20;;;;;;;22.28;49.62;98945.30;106069;1274;112119;-64
2022/07/23 00:48:10;;;;;;;24.60;12.40;;;;;;;22.26;49.66;98945.14;106099;1274;97731;-64
2022/07/23 00:50:38;;;;;;;23.80;12.80;;;;;;;22.23;49.44;98945.02;106131;1274;107513;-65
2022/07/23 00:53:08;;;;;;;22.90;13.30;;;;;;;22.14;49.59;98943.56;105966;1274;98329;-66
2022/07/23 00:55:39;;;;;;;23.00;12.40;;;;;;;22.11;49.67;98948.61;105951;1274;98057;-65
2022/07/23 00:58:11;;;;;;;25.40;12.00;;;;;;;22.10;49.83;98944.55;105944;1274;111424;-65
2022/07/23 01:00:39;;;;;;;23.40;12.20;;;;;;;22.09;50.01;98948.03;105967;1274;96473;-66
2022/07/23 01:03:09;;;;;;;24.80;12.80;;;;;;;22.07;50.12;98946.46;105939;1274;108206;-65
2022/07/23 01:05:39;;;;;;;23.30;12.70;;;;;;;22.05;50.02;98946.85;105984;1274;95189;-66
2022/07/23 01:08:09;;;;;;;25.20;12.70;;;;;;;22.00;50.06;98945.52;105977;1274;97983;-66
2022/07/23 01:10:37;;;;;;;22.00;12.60;;;;;;;21.91;50.03;98948.06;105953;1274;111921;-64
2022/07/23 01:13:09;;;;;;;25.10;12.90;;;;;;;21.84;50.43;98948.40;105951;1275;98579;-66
2022/07/23 01:15:39;;;;;;;26.90;12.80;;;;;;;21.81;50.26;98955.21;105946;1274;108459;-64
2022/07/23 01:18:10;;;;;;;24.40;13.60;;;;;;;21.78;50.18;98955.55;105996;1274;99053;-61
2022/07/23 01:20:40;;;;;;;23.00;12.30;;;;;;;21.69;50.45;98956.77;106037;1274;95166;-63
2022/07/23 01:23:07;;;;;;;24.50;12.30;;;;;;;21.62;50.46;98956.55;105910;1274;111373;-64
2022/07/23 01:25:35;;;;;;;24.00;12.80;;;;;;;21.59;50.57;98952.23;105926;1274;97971;-64
2022/07/23 01:28:04;;;;;;;21.20;12.20;;;;;;;21.57;50.71;98950.29;105965;1274;108289;-64
2022/07/23 01:30:33;;;;;;;26.50;13.10;;;;;;;21.58;50.85;98950.13;106013;1274;98073;-64
2022/07/23 01:33:02;;;;;;;23.80;12.90;;;;;;;21.58;51.07;98946.17;106017;1274;96817;-64
2022/07/23 01:35:31;;;;;;;27.10;12.70;;;;;;;21.57;51.12;98944.58;106019;1274;111836;-64
2022/07/23 01:38:00;;;;;;;22.90;13.10;;;;;;;21.52;51.05;98941.47;106028;1274;97920;-66
2022/07/23 01:40:28;;;;;;;22.00;12.80;;;;;;;21.51;51.25;98950.14;105927;1274;108347;-64
2022/07/23 01:42:59;;;;;;;23.50;12.20;;;;;;;21.48;51.45;98952.93;105962;1274;97607;-64
2022/07/23 01:45:28;;;;;;;23.80;13.00;;;;;;;21.46;51.31;98951.28;105997;1274;95314;-64
2022/07/23 01:47:58;;;;;;;23.90;12.20;;;;;;;21.43;51.67;98949.27;106094;1274;112017;-63
2022/07/23 01:50:27;;;;;;;25.00;13.20;;;;;;;21.40;51.74;98944.17;106081;1274;96385;-62
2022/07/23 01:52:55;;;;;;;22.70;12.40;;;;;;;21.37;51.58;98940.17;105906;1274;108397;-64
2022/07/23 01:55:24;;;;;;;22.80;12.60;;;;;;;21.36;51.74;98939.11;105942;1276;95268;-64
2022/07/23 01:57:53;;;;;;;24.40;13.70;;;;;;;21.34;51.79;98938.79;106051;1274;97980;-63
2022/07/23 02:00:21;;;;;;;22.40;13.10;;;;;;;21.32;51.90;98944.55;106027;1274;112229;-65
2022/07/23 02:02:49;;;;;;;25.40;11.80;;;;;;;21.30;51.86;98947.89;106034;1274;97988;-64
2022/07/23 02:05:18;;;;;;;23.30;12.80;;;;;;;21.25;52.01;98946.98;106077;1274;108102;-65
2022/07/23 02:07:45;;;;;;;25.80;13.00;;;;;;;21.23;52.00;98942.56;106109;1274;97962;-65
2022/07/23 02:10:14;;;;;;;23.50;12.00;;;;;;;21.22;52.16;98940.69;106104;1274;97867;-66
2022/07/23 02:12:42;;;;;;;23.10;12.40;;;;;;;21.19;52.34;98937.44;105938;1274;111860;-64
2022/07/23 02:15:10;;;;;;;21.70;12.20;;;;;;;21.17;52.22;98936.15;105928;1276;97990;-65
2022/07/23 02:17:40;;;;;;;26.10;13.10;;;;;;;21.05;52.03;98943.20;105971;1274;107707;-65
2022/07/23 02:20:10;;;;;;;24.40;11.70;;;;;;;20.94;52.18;98940.65;106027;1276;98261;-65
2022/07/23 02:22:40;;;;;;;24.80;11.90;;;;;;;20.88;52.53;98945.31;106116;1274;97876;-65
2022/07/23 02:25:09;;;;;;;23.10;10.70;;;;;;;20.86;52.68;98946.20;106024;1276;111399;-65
2022/07/23 02:27:37;;;;;;;22.50;10.90;;;;;;;20.88;52.85;98939.88;105965;1274;98461;-65
2022/07/23 02:30:07;;;;;;;21.20;10.80;;;;;;;20.88;52.73;98939.50;105927;1276;108742;-64
2022/07/23 02:32:37;;;;;;;21.50;10.90;;;;;;;20.88;52.95;98940.72;106014;1275;97769;-65
2022/07/23 02:35:07;;;;;;;20.30;10.20;;;;;;;20.87;52.93;98943.90;106104;1274;95291;-64
2022/07/23 02:37:35;;;;;;;20.10;10.70;;;;;;;20.87;52.97;98949.59;106095;1274;110965;-64
2022/07/23 02:40:05;;;;;;;22.10;11.50;;;;;;;20.85;53.06;98944.61;106052;1274;97906;-64
2022/07/23 02:42:33;;;;;;;21.00;11.00;;;;;;;20.81;53.15;98946.59;105987;1276;105808;-64
2022/07/23 02:45:02;;;;;;;23.90;11.80;;;;;;;20.79;53.22;98945.83;106035;1274;97865;-63
2022/07/23 02:47:31;;;;;;;20.20;11.30;;;;;;;20.78;53.23;98946.91;106042;1276;95276;-64
2022/07/23 02:50:05;;;;;;;23.90;11.00;;;;;;;20.77;53.35;98943.07;106074;1274;112022;-63
2022/07/23 02:52:33;;;;;;;26.40;11.20;;;;;;;20.76;53.44;98945.23;106095;1274;97928;-65
2022/07/23 02:55:03;;;;;;;23.60;11.00;;;;;;;20.74;53.33;98944.90;106112;1274;108258;-64
2022/07/23 02:57:32;;;;;;;22.10;10.20;;;;;;;20.67;53.29;98944.10;106073;1274;97957;-64
2022/07/23 03:00:00;;;;;;;21.70;10.40;;;;;;;20.56;53.28;98941.91;106022;1274;95298;-65
2022/07/23 03:02:29;;;;;;;20.30;10.40;;;;;;;20.51;53.47;98945.86;106055;1274;112091;-66
2022/07/23 03:04:57;;;;;;;24.20;10.70;;;;;;;20.49;53.53;98949.23;106099;1274;98599;-65
2022/07/23 03:07:26;;;;;;;23.00;11.70;;;;;;;20.48;53.69;98950.48;106045;1274;108510;-65
2022/07/23 03:09:54;;;;;;;24.90;11.20;;;;;;;20.46;53.78;98951.50;106001;1276;97929;-64
2022/07/23 03:12:24;;;;;;;23.20;10.60;;;;;;;20.48;53.83;98950.85;106040;1274;97861;-64
2022/07/23 03:14:52;;;;;;;21.60;10.60;;;;;;;20.48;53.87;98945.95;105838;1276;111990;-64
2022/07/23 03:17:20;;;;;;;21.00;9.70;;;;;;;20.49;54.05;98945.64;105920;1274;95226;-64
2022/07/23 03:19:49;;;;;;;21.90;11.20;;;;;;;20.48;54.06;98942.78;105955;1274;108163;-63
2022/07/23 03:22:18;;;;;;;23.40;12.30;;;;;;;20.46;54.07;98939.15;106117;1274;98060;-64
2022/07/23 03:24:55;;;;;;;19.20;10.80;;;;;;;20.41;54.07;98943.28;105973;1274;98015;-64
2022/07/23 03:27:29;;;;;;;21.50;9.50;;;;;;;20.40;54.21;98952.41;105955;1274;110948;-64
2022/07/23 03:30:00;;;;;;;21.40;10.30;;;;;;;20.41;54.34;98950.01;106072;1274;97861;-66
2022/07/23 03:32:29;;;;;;;21.70;10.90;;;;;;;20.38;54.32;98952.80;106075;1274;106679;-65
2022/07/23 03:34:58;;;;;;;20.90;10.60;;;;;;;20.35;54.40;98954.06;106089;1274;99092;-64
2022/07/23 03:37:28;;;;;;;22.20;11.00;;;;;;;20.35;54.45;98956.61;106042;1274;96344;-64
2022/07/23 03:39:57;;;;;;;20.30;10.50;;;;;;;20.35;54.51;98953.70;106022;1274;110993;-66
2022/07/23 03:42:27;;;;;;;21.40;10.80;;;;;;;20.36;54.65;98950.86;105968;1274;97992;-65
2022/07/23 03:44:56;;;;;;;19.80;9.90;;;;;;;20.38;54.73;98951.89;105968;1275;108018;-64
2022/07/23 03:47:25;;;;;;;20.00;10.90;;;;;;;20.41;54.80;98946.52;105982;1274;97884;-65
2022/07/23 03:49:55;;;;;;;23.20;10.40;;;;;;;20.44;54.90;98949.08;105803;1275;248384;-64
2022/07/23 03:52:23;;;;;;;19.00;10.20;;;;;;;20.47;54.89;98950.38;105950;1274;112055;-65
2022/07/23 03:54:52;;;;;;;22.40;10.70;;;;;;;20.47;54.75;98949.10;106087;1274;95445;-65
2022/07/23 03:57:20;;;;;;;21.60;10.10;;;;;;;20.41;54.45;98944.41;106108;1274;108570;-66
2022/07/23 03:59:49;;;;;;;23.20;11.90;;;;;;;20.32;54.66;98945.78;106126;1274;97959;-66
2022/07/23 04:02:17;;;;;;;21.70;10.60;;;;;;;20.29;55.02;98951.00;106007;1274;96355;-67
2022/07/23 04:04:46;;;;;;;21.10;10.70;;;;;;;20.31;55.19;98949.13;105980;1274;111996;-67
2022/07/23 04:07:17;;;;;;;23.70;11.30;;;;;;;20.36;55.17;98948.41;106033;1274;97864;-65
2022/07/23 04:09:49;;;;;;;22.90;12.60;;;;;;;20.35;54.88;98953.53;105971;1274;108379;-64
2022/07/23 04:12:18;;;;;;;24.80;12.10;;;;;;;20.31;55.13;98950.17;105937;1274;97861;-64
2022/07/23 04:14:47;;;;;;;22.50;12.20;;;;;;;20.32;55.38;98949.73;105974;1275;97878;-64
2022/07/23 04:17:17;;;;;;;23.50;13.60;;;;;;;20.35;55.16;98955.18;105996;1274;111952;-64
2022/07/23 04:19:45;;;;;;;24.90;12.10;;;;;;;20.34;55.18;98960.83;106014;1274;97979;-64
2022/07/23 04:22:13;;;;;;;24.20;11.90;;;;;;;20.34;55.55;98961.14;105924;1275;108482;-65
2022/07/23 04:24:43;;;;;;;22.70;11.80;;;;;;;20.39;55.89;98961.03;105956;1276;95365;-64
2022/07/23 04:27:11;;;;;;;23.50;11.90;;;;;;;20.46;55.99;98961.84;106021;1274;97986;-64
2022/07/23 04:29:40;;;;;;;23.30;11.60;;;;;;;20.51;55.74;98955.83;105958;1275;111768;-65
2022/07/23 04:32:09;;;;;;;21.00;12.10;;;;;;;20.54;55.61;98955.85;106096;1274;97838;-64
2022/07/23 04:34:37;;;;;;;22.30;13.10;;;;;;;20.54;55.92;98955.51;106016;1274;107596;-64
2022/07/23 04:37:05;;;;;;;22.90;12.50;;;;;;;20.55;56.20;98951.95;105978;1274;97984;-64
2022/07/23 04:39:34;;;;;;;21.50;12.60;;;;;;;20.59;56.30;98957.09;106056;1275;97870;-64
2022/07/23 04:42:02;;;;;;;53.40;33.10;;;;;;;20.64;56.39;98961.95;106123;1274;112067;-64
2022/07/23 04:44:30;;;;;;;73.40;42.90;;;;;;;20.65;55.99;98964.81;106097;1274;95293;-65
2022/07/23 04:46:59;;;;;;;82.00;46.20;;;;;;;20.63;56.12;98966.85;105985;1274;108219;-64
2022/07/23 04:49:29;;;;;;;59.90;34.60;;;;;;;20.64;56.58;98969.58;105981;1275;95321;-64
2022/07/23 04:51:57;;;;;;;61.80;33.50;;;;;;;20.70;56.72;98971.44;106055;1274;96623;-65
2022/07/23 04:54:25;;;;;;;48.30;28.00;;;;;;;20.78;56.83;98975.25;106010;1274;112035;-65
2022/07/23 04:56:53;;;;;;;42.70;24.60;;;;;;;20.88;56.91;98970.49;106055;1276;97983;-65
2022/07/23 04:59:22;;;;;;;37.50;20.80;;;;;;;20.99;56.97;98965.27;106122;1274;108439;-64
2022/07/23 05:01:51;;;;;;;36.00;19.90;;;;;;;21.10;56.92;98960.71;106005;1274;98458;-67
2022/07/23 05:04:20;;;;;;;31.90;16.80;;;;;;;21.23;56.93;98963.00;106044;1275;97886;-66
2022/07/23 05:06:49;;;;;;;27.00;15.00;;;;;;;21.35;57.01;98964.07;106049;1274;112314;-64
2022/07/23 05:09:20;;;;;;;19.60;10.70;;;;;;;21.47;56.97;98957.21;105974;1274;95384;-65
2022/07/23 05:11:49;;;;;;;18.70;9.80;;;;;;;21.58;56.94;98960.21;106002;1274;108514;-63
2022/07/23 05:14:18;;;;;;;20.20;10.80;;;;;;;21.69;56.95;98959.98;106066;1274;97883;-66
2022/07/23 05:16:47;;;;;;;20.60;9.30;;;;;;;21.80;56.98;98959.58;106148;1276;97867;-65
2022/07/23 05:19:15;;;;;;;18.20;9.70;;;;;;;21.93;57.13;98955.59;106081;1274;112007;-64
2022/07/23 05:21:43;;;;;;;23.10;9.90;;;;;;;22.04;57.18;98955.81;106099;1275;97887;-64
2022/07/23 05:24:12;;;;;;;19.20;9.60;;;;;;;22.16;57.18;98958.52;106025;1274;108287;-66
2022/07/23 05:26:40;;;;;;;21.00;10.20;;;;;;;22.28;57.00;98960.23;105952;1274;98605;-65
2022/07/23 05:29:08;;;;;;;18.70;9.50;;;;;;;22.40;57.02;98967.25;105978;1274;97885;-66
2022/07/23 05:31:37;;;;;;;21.80;10.10;;;;;;;22.52;56.74;98964.23;106085;1275;111944;-65
2022/07/23 05:34:05;;;;;;;21.00;10.10;;;;;;;22.62;56.61;98962.05;106116;1274;97907;-66
2022/07/23 05:36:34;;;;;;;20.70;10.30;;;;;;;22.71;56.91;98963.34;106060;1275;108430;-65
2022/07/23 05:39:03;;;;;;;21.10;10.10;;;;;;;22.79;56.91;98965.09;106072;1274;97894;-63
2022/07/23 05:41:33;;;;;;;19.40;10.20;;;;;;;22.85;56.74;98965.85;105976;1275;97978;-63
2022/07/23 05:44:02;;;;;;;21.90;10.60;;;;;;;22.93;56.74;98959.88;106066;1274;111952;-64
2022/07/23 05:46:30;;;;;;;22.40;10.00;;;;;;;23.00;56.89;98957.44;106046;1274;97993;-64
2022/07/23 05:48:58;;;;;;;25.30;11.00;;;;;;;23.08;56.83;98964.09;105946;1274;108347;-66
2022/07/23 05:51:28;;;;;;;19.60;9.90;;;;;;;23.16;56.97;98967.45;106060;1274;98001;-65
2022/07/23 05:53:56;;;;;;;20.30;10.30;;;;;;;23.23;56.74;98962.23;106095;1274;97883;-64
2022/07/23 05:56:25;;;;;;;19.60;10.30;;;;;;;23.30;56.74;98965.17;106084;1275;111515;-65
2022/07/23 05:58:54;;;;;;;19.30;10.60;;;;;;;23.38;56.83;98961.74;106134;1274;97975;-63
2022/07/23 06:01:23;;;;;;;22.90;11.90;;;;;;;23.48;56.94;98963.88;105973;1276;108327;-64
2022/07/23 06:03:52;;;;;;;19.10;10.10;;;;;;;23.57;56.67;98960.23;106023;1275;97963;-68
2022/07/23 06:06:22;;;;;;;21.40;10.00;;;;;;;23.64;56.72;98957.73;106101;1275;97969;-66
2022/07/23 06:08:50;;;;;;;27.20;12.10;;;;;;;23.72;56.92;98955.84;106073;1275;111893;-66
2022/07/23 06:11:19;;;;;;;19.50;10.20;;;;;;;23.78;56.80;98952.77;106085;1274;98109;-67
2022/07/23 06:13:48;;;;;;;21.80;11.10;;;;;;;23.87;56.78;98953.70;106074;1275;108413;-68
2022/07/23 06:16:16;;;;;;;21.40;11.50;;;;;;;23.93;56.88;98951.58;106087;1275;97952;-68
2022/07/23 06:18:45;;;;;;;21.10;11.00;;;;;;;24.00;56.83;98945.57;106007;1274;97943;-71
2022/07/23 06:21:14;;;;;;;23.50;11.00;;;;;;;24.09;56.77;98939.84;105956;1275;110389;-69
2022/07/23 06:24:04;;;;;;;20.00;10.70;;;;;;;24.20;56.77;98938.80;105864;1275;97915;-71
2022/07/23 06:26:33;;;;;;;23.50;11.10;;;;;;;24.28;56.60;98945.04;105982;1275;108392;-69
2022/07/23 06:29:02;;;;;;;19.90;10.40;;;;;;;24.35;56.86;98946.88;105997;1275;97878;-69
2022/07/23 06:31:31;;;;;;;23.70;11.30;;;;;;;24.45;56.76;98945.73;106102;1275;95180;-68
2022/07/23 06:34:01;;;;;;;19.90;11.40;;;;;;;24.60;56.53;98942.25;106053;1276;112183;-69
2022/07/23 06:36:29;;;;;;;20.50;11.00;;;;;;;24.82;56.40;98942.35;106110;1275;97890;-70
2022/07/23 06:38:58;;;;;;;21.80;11.80;;;;;;;25.02;56.29;98944.17;106124;1275;108252;-71
2022/07/23 06:41:29;;;;;;;22.90;11.40;;;;;;;25.13;56.50;98946.29;105989;1276;97882;-71
2022/07/23 06:43:58;;;;;;;21.00;11.60;;;;;;;25.19;56.55;98947.71;106048;1274;97891;-71
2022/07/23 06:46:27;;;;;;;20.90;11.90;;;;;;;25.26;56.63;98952.10;106162;1274;111318;-69
2022/07/23 06:48:56;;;;;;;20.70;12.50;;;;;;;25.34;56.57;98948.91;106095;1274;98011;-70
2022/07/23 06:51:26;;;;;;;21.60;11.70;;;;;;;25.42;56.55;98951.40;105966;1275;109118;-70
2022/07/23 06:53:54;;;;;;;22.40;11.30;;;;;;;25.51;56.56;98948.64;105989;1274;95255;-69
2022/07/23 06:56:21;;;;;;;21.20;11.70;;;;;;;25.60;56.52;98947.02;105975;1276;97870;-72
2022/07/23 06:58:49;;;;;;;23.80;12.10;;;;;;;25.68;56.37;98947.38;106003;1275;111378;-70
2022/07/23 07:01:17;;;;;;;23.50;12.60;;;;;;;25.75;56.50;98947.27;105993;1275;97883;-70
2022/07/23 07:03:46;;;;;;;20.80;11.60;;;;;;;25.81;56.29;98944.45;105923;1274;108834;-68
2022/07/23 07:06:14;;;;;;;22.70;11.60;;;;;;;25.88;56.18;98941.83;106091;1276;97897;-71
2022/07/23 07:08:43;;;;;;;25.10;11.90;;;;;;;26.02;56.02;98941.91;105943;1276;95407;-73
2022/07/23 07:11:12;;;;;;;23.10;11.70;;;;;;;26.97;55.19;98935.10;106117;1276;111480;-68
2022/07/23 07:13:40;;;;;;;23.10;11.80;;;;;;;28.13;54.93;98927.48;106124;1275;97925;-68
2022/07/23 07:16:08;;;;;;;25.20;12.10;;;;;;;29.43;54.39;98925.69;106026;1275;108404;-66
2022/07/23 07:18:36;;;;;;;22.50;11.70;;;;;;;30.77;54.57;98932.27;106052;1274;95209;-64
2022/07/23 07:21:05;;;;;;;20.90;11.90;;;;;;;32.09;54.07;98929.02;106058;1277;97856;-69
2022/07/23 07:23:34;;;;;;;17.80;10.10;;;;;;;33.33;53.74;98925.83;106129;1274;112006;-68
2022/07/23 07:26:03;;;;;;;22.50;10.40;;;;;;;34.55;53.32;98922.80;106131;1274;98326;-67
2022/07/23 07:28:32;;;;;;;19.70;10.50;;;;;;;35.63;52.71;98922.94;106139;1275;108894;-68
2022/07/23 07:31:02;;;;;;;17.90;9.20;;;;;;;36.50;52.35;98922.67;106132;1276;97960;-67
2022/07/23 07:33:31;;;;;;;21.30;10.50;;;;;;;37.36;51.82;98917.34;106170;1274;95300;-68
2022/07/23 07:36:00;;;;;;;18.70;9.60;;;;;;;38.21;51.38;98921.28;106120;1274;112006;-67
2022/07/23 07:38:28;;;;;;;16.70;9.30;;;;;;;38.97;50.72;98918.04;106146;1274;98553;-69
2022/07/23 07:40:57;;;;;;;18.80;10.20;;;;;;;39.63;50.00;98925.59;106118;1275;108836;-68
2022/07/23 07:43:27;;;;;;;17.60;9.10;;;;;;;40.30;49.64;98920.98;106041;1277;95403;-68
2022/07/23 07:45:54;;;;;;;18.80;8.90;;;;;;;41.11;49.08;98917.78;105904;1275;95263;-67
2022/07/23 07:48:23;;;;;;;19.60;9.20;;;;;;;41.93;48.33;98918.77;106047;1275;111342;-67
2022/07/23 07:50:52;;;;;;;18.80;8.70;;;;;;;42.56;47.47;98914.70;106111;1274;97979;-68
2022/07/23 07:53:21;;;;;;;16.60;8.60;;;;;;;43.10;46.51;98922.23;106006;1274;108916;-67
2022/07/23 07:55:50;;;;;;;16.40;9.20;;;;;;;43.59;45.74;98921.34;105987;1275;97893;-67
2022/07/23 07:58:19;;;;;;;16.30;8.70;;;;;;;44.12;45.14;98926.99;106133;1275;95289;-67
2022/07/23 08:00:49;;;;;;;18.50;9.20;;;;;;;44.68;44.44;98925.12;105928;1275;111424;-66
2022/07/23 08:03:18;;;;;;;15.10;8.40;;;;;;;45.09;43.42;98919.94;106084;1274;97922;-67
2022/07/23 08:05:47;;;;;;;20.30;8.30;;;;;;;45.26;42.67;98917.34;105974;1277;108398;-67
2022/07/23 08:08:16;;;;;;;17.70;8.70;;;;;;;45.64;42.19;98916.67;106035;1276;97950;-67
2022/07/23 08:10:46;;;;;;;17.10;8.80;;;;;;;46.01;41.34;98913.70;106081;1275;97959;-67
2022/07/23 08:13:16;;;;;;;22.40;8.90;;;;;;;46.48;40.55;98914.62;106077;1274;112066;-68
2022/07/23 08:15:45;;;;;;;17.40;8.50;;;;;;;46.81;39.84;98913.56;106012;1276;98008;-68
2022/07/23 08:18:15;;;;;;;16.80;7.70;;;;;;;46.94;39.06;98916.91;105933;1275;109008;-67
2022/07/23 08:20:44;;;;;;;18.00;8.90;;;;;;;47.05;38.22;98921.70;105959;1275;98558;-68
2022/07/23 08:23:12;;;;;;;18.50;8.20;;;;;;;47.17;37.52;98921.11;105986;1274;95189;-67
2022/07/23 08:25:42;;;;;;;18.60;8.20;;;;;;;47.28;36.71;98920.94;106049;1276;111775;-66
2022/07/23 08:28:15;;;;;;;13.90;7.70;;;;;;;47.27;35.82;98921.29;105967;1275;98478;-67
2022/07/23 08:30:45;;;;;;;17.70;8.60;;;;;;;47.21;35.47;98925.41;105978;1274;109013;-67
2022/07/23 08:33:16;;;;;;;17.40;8.80;;;;;;;47.42;34.93;98924.66;106002;1274;97823;-67
2022/07/23 08:36:05;;;;;;;15.40;7.70;;;;;;;47.66;34.29;98920.61;105982;1274;97858;-67
2022/07/23 08:38:35;;;;;;;;;;;;;;;47.71;33.91;98918.15;106009;1274;111423;-66
2022/07/23 08:41:04;;;;;;;14.90;7.40;;;;;;;47.64;33.53;98918.55;106001;1274;96308;-67
2022/07/23 08:43:35;;;;;;;18.40;7.80;;;;;;;47.64;33.17;98918.88;105956;1274;108934;-66
2022/07/23 08:46:04;;;;;;;17.00;7.40;;;;;;;47.58;32.11;98915.82;105939;1274;97973;-66
2022/07/23 08:48:36;;;;;;;15.40;7.30;;;;;;;47.66;31.66;98917.40;106052;1274;96291;-67
2022/07/23 08:51:10;;;;;;;13.40;7.20;;;;;;;47.77;31.15;98916.36;106016;1276;111585;-67
2022/07/23 08:53:41;;;;;;;11.30;6.90;;;;;;;47.89;30.64;98913.73;105990;1275;97864;-67
2022/07/23 08:56:10;;;;;;;14.30;7.20;;;;;;;47.90;30.24;98910.44;105945;1275;108012;-68
2022/07/23 08:58:40;;;;;;;12.50;6.90;;;;;;;47.94;29.76;98908.70;106014;1274;96428;-67
2022/07/23 09:01:09;;;;;;;13.80;7.20;;;;;;;47.76;29.14;98909.16;106048;1274;97951;-67
2022/07/23 09:03:39;;;;;;;13.50;6.70;;;;;;;47.19;28.62;98908.29;105985;1274;111930;-67
2022/07/23 09:06:08;;;;;;;;;;;;;;;46.83;28.14;98897.62;106127;1274;97846;-67
2022/07/23 09:08:41;;;;;;;9.60;6.40;;;;;;;46.78;28.14;98897.72;106075;1277;108328;-67
2022/07/23 09:11:17;;;;;;;12.50;6.30;;;;;;;46.90;28.05;98896.60;106096;1275;97170;-66
2022/07/23 09:13:52;;;;;;;12.70;6.50;;;;;;;47.20;27.64;98896.98;106018;1275;95205;-66
2022/07/23 09:16:29;;;;;;;11.60;6.60;;;;;;;47.32;26.89;98893.20;105996;1274;112452;-66
2022/07/23 09:19:08;;;;;;;14.00;6.40;;;;;;;47.08;26.81;98888.00;105996;1275;97934;-66
2022/07/23 09:21:38;;;;;;;10.80;6.20;;;;;;;47.19;26.56;98885.15;106009;1275;107722;-66
2022/07/23 09:24:14;;;;;;;13.10;6.10;;;;;;;46.71;26.31;98883.83;105981;1277;96197;-68
2022/07/23 09:26:52;;;;;;;10.10;6.30;;;;;;;45.91;25.79;98881.89;105998;1277;96402;-67
2022/07/23 09:29:27;;;;;;;11.00;6.40;;;;;;;45.58;25.72;98877.32;106049;1274;112423;-67
2022/07/23 09:32:07;;;;;;;12.30;7.00;;;;;;;45.45;25.36;98874.89;106005;1274;96862;-65
2022/07/23 09:34:40;;;;;;;15.70;7.60;;;;;;;45.63;25.27;98869.22;106074;1275;108010;-66
2022/07/23 09:37:17;;;;;;;16.20;7.10;;;;;;;45.81;24.89;98870.61;106006;1274;97030;-67
2022/07/23 09:39:50;;;;;;;13.10;7.30;;;;;;;45.87;24.88;98867.88;105970;1277;97978;-67
2022/07/23 09:42:26;;;;;;;15.10;7.00;;;;;;;45.98;24.65;98863.17;105950;1275;111999;-67
2022/07/23 09:44:58;;;;;;;11.50;6.70;;;;;;;46.14;24.51;98864.36;105998;1275;99024;-66
2022/07/23 09:47:32;;;;;;;15.40;7.90;;;;;;;45.87;24.29;98866.14;106128;1274;106316;-66
2022/07/23 09:50:08;;;;;;;11.10;7.10;;;;;;;45.24;24.08;98866.81;106074;1275;97962;-66
2022/07/23 09:52:49;;;;;;;11.30;7.20;;;;;;;44.36;23.31;98868.73;106030;1274;97960;-65
2022/07/23 09:55:18;;;;;;;10.60;7.00;;;;;;;44.08;23.69;98870.59;105961;1274;110609;-66
2022/07/23 09:57:53;;;;;;;12.80;7.50;;;;;;;44.31;23.80;98870.23;105995;1275;96892;-67
2022/07/23 10:00:24;;;;;;;11.70;7.00;;;;;;;44.34;23.61;98869.86;105967;1274;107817;-68
2022/07/23 10:02:54;;;;;;;12.80;7.00;;;;;;;44.44;23.34;98869.05;105951;1277;97957;-67
2022/07/23 10:05:25;;;;;;;14.40;7.20;;;;;;;44.37;23.21;98870.86;106059;1275;97889;-67
2022/07/23 10:07:55;;;;;;;17.90;7.50;;;;;;;43.88;23.18;98869.23;106032;1274;112697;-67
2022/07/23 10:10:26;;;;;;;16.30;7.90;;;;;;;43.71;23.29;98868.73;105954;1275;97861;-66
2022/07/23 10:13:16;;;;;;;13.80;7.00;;;;;;;43.65;23.14;98866.58;105972;1274;108518;-67
2022/07/23 10:15:52;;;;;;;11.80;7.30;;;;;;;43.34;23.25;98863.38;106046;1275;97950;-67
2022/07/23 10:18:22;;;;;;;12.60;7.40;;;;;;;43.03;23.21;98862.92;106103;1275;97909;-66
2022/07/23 10:20:51;;;;;;;16.20;8.20;;;;;;;42.63;23.02;98863.42;106065;1274;111536;-66
2022/07/23 10:23:48;;;;;;;13.30;7.30;;;;;;;42.18;23.06;98862.57;106072;1275;98072;-67
2022/07/23 10:26:28;;;;;;;14.50;7.70;;;;;;;41.83;23.01;98861.33;105971;1274;107713;-66
2022/07/23 10:29:31;;;;;;;15.80;7.70;;;;;;;41.46;22.93;98861.63;106030;1274;97173;-67
2022/07/23 10:32:16;;;;;;;13.70;7.70;;;;;;;40.99;22.89;98857.95;105940;1274;97846;-67
2022/07/23 10:35:23;;;;;;;15.00;7.50;;;;;;;40.50;22.77;98853.77;105985;1274;112460;-67
2022/07/23 10:37:56;;;;;;;12.90;7.00;;;;;;;39.98;22.83;98849.29;106086;1275;97857;-66
2022/07/23 10:40:24;;;;;;;14.20;7.80;;;;;;;39.64;22.74;98850.10;106082;1275;107066;-65
2022/07/23 10:42:54;;;;;;;13.90;7.90;;;;;;;39.36;22.82;98852.44;105993;1275;97953;-65
2022/07/23 10:45:32;;;;;;;15.40;7.60;;;;;;;38.98;22.87;98844.24;106129;1274;97879;-65
2022/07/23 10:48:25;;;;;;;17.70;8.00;;;;;;;38.56;23.04;98847.75;106114;1274;111359;-66
2022/07/23 10:51:11;;;;;;;15.00;7.70;;;;;;;38.12;22.75;98853.48;105990;1278;98007;-65
2022/07/23 10:53:50;;;;;;;14.50;7.60;;;;;;;37.36;22.82;98852.84;106142;1274;106210;-63
2022/07/23 10:56:51;;;;;;;13.30;7.10;;;;;;;37.00;23.10;98852.98;106107;1274;97906;-65
2022/07/23 10:59:19;;;;;;;15.20;7.20;;;;;;;36.88;23.25;98846.53;106114;1274;97006;-65
2022/07/23 11:01:50;;;;;;;12.60;7.50;;;;;;;36.84;23.33;98845.02;106033;1274;112061;-66
2022/07/23 11:04:51;;;;;;;16.00;8.40;;;;;;;36.84;23.53;98844.58;106022;1274;96352;-66
2022/07/23 11:07:21;;;;;;;14.60;7.80;;;;;;;36.62;23.52;98845.38;106096;1274;107400;-65
2022/07/23 11:09:49;;;;;;;14.50;8.30;;;;;;;36.47;23.65;98848.10;106066;1274;96631;-65
2022/07/23 11:12:21;;;;;;;18.10;9.30;;;;;;;36.20;23.80;98846.39;106139;1274;97940;-66
2022/07/23 11:15:09;;;;;;;13.70;7.80;;;;;;;36.06;24.06;98842.56;106078;1274;112046;-66
2022/07/23 11:18:01;;;;;;;13.40;7.90;;;;;;;36.06;24.26;98836.63;106073;1274;95712;-65
2022/07/23 11:20:29;;;;;;;15.20;7.70;;;;;;;36.13;24.35;98833.21;106103;1274;107776;-64
2022/07/23 11:22:59;;;;;;;14.50;7.60;;;;;;;36.16;24.51;98830.74;105989;1277;97979;-65
2022/07/23 11:25:34;;;;;;;12.90;7.70;;;;;;;36.11;24.65;98824.14;106112;1274;95185;-65